KCSM/CSM METAR and TAF weather

Enter ICAO airport designator
Station Type Date Time Source
KCSM METAR 2020/09/25 20:53 UTC NOAA

KCSM 252053Z 18018G27KT 10SM CLR 32/14 A2987 RMK AO2 PK WND 17027/2052 SLP092 T03170144 56019


Station Type Date Time Source
KCSM Decoded METAR 2020/09/25 20:53 UTC NOAA

CLINTON-SHERMAN AIRPORT, OK, United States (KCSM) 35-21E 99-12W 588M
Sep 25, 2020 - 04:53 PM EDT / 2020.09.25 2053 UTC
Wind: from the S (180 degrees) at 21 MPH (18 KT) gusting to 31 MPH (27 KT):0
Visibility: 10 mile(s):0
Sky conditions: clear
Temperature: 89.1 F (31.7 C)
Dew Point: 57.9 F (14.4 C)
Relative Humidity: 35%
Pressure (altimeter): 29.87 in. Hg (1011 hPa)
Pressure tendency: 0.06 inches (1.9 hPa) lower than three hours ago
ob: KCSM 252053Z 18018G27KT 10SM CLR 32/14 A2987 RMK AO2 PK WND 17027/2052 SLP092 T03170144 56019
cycle: 21

Station Type Date Time Source
KCSM TAF 2020/09/25 18:22 UTC NOAA

TAF KCSM 251720Z 2518/2618 20015G23KT P6SM SKC
FM260200 18013KT P6SM SKC
FM261500 20015G24KT P6SM SKC

Example: see airport list